Time;durP1;ratioP1;P1;durP2;ratioP2;P2;SDS_P1;SDS_P2;PMS_P1;PMS_P2;Temp;Humidity;BMP_temperature;BMP_pressure;BME280_temperature;BME280_humidity;BME280_pressure;Samples;Min_cycle;Max_cycle;Signal;HPM_P1;HPM_P2
2023/12/17 00:00:00;;;;;;;4.40;2.40;;;;;;;9.85;80.21;102057.31;4964399;28;20077;-45
2023/12/17 00:02:27;;;;;;;5.40;1.80;;;;;;;9.77;80.34;102045.00;4961479;28;20134;-47
2023/12/17 00:04:53;;;;;;;6.80;4.30;;;;;;;9.76;80.34;102032.88;4959313;28;20047;-55
2023/12/17 00:07:20;;;;;;;4.18;2.17;;;;;;;9.75;79.98;102023.38;4960004;28;20051;-51
2023/12/17 00:09:47;;;;;;;5.30;2.40;;;;;;;9.72;79.48;102020.69;4963089;28;20508;-47
2023/12/17 00:12:14;;;;;;;4.20;2.08;;;;;;;9.67;80.37;102011.00;4961665;28;20428;-53
2023/12/17 00:14:41;;;;;;;4.20;3.22;;;;;;;9.62;79.96;101998.81;4962737;28;20050;-47
2023/12/17 00:17:08;;;;;;;4.20;2.25;;;;;;;9.63;80.03;101994.53;4960249;28;20047;-51
2023/12/17 00:19:35;;;;;;;4.05;2.17;;;;;;;9.57;79.93;101992.59;4962280;28;20775;-49
2023/12/17 00:22:02;;;;;;;4.18;3.55;;;;;;;9.56;79.80;101997.72;4961038;28;20130;-53
2023/12/17 00:24:28;;;;;;;5.18;3.70;;;;;;;9.50;79.73;102003.56;4962613;28;20062;-52
2023/12/17 00:26:57;;;;;;;5.20;4.35;;;;;;;9.46;79.49;102002.56;4962564;28;20054;-49
2023/12/17 00:29:24;;;;;;;4.63;3.58;;;;;;;9.43;80.25;101999.91;4960031;28;20105;-52
2023/12/17 00:31:50;;;;;;;5.55;4.07;;;;;;;9.37;79.96;101992.81;4957265;28;20518;-53
2023/12/17 00:34:26;;;;;;;5.78;4.07;;;;;;;9.39;80.34;102003.19;4961526;28;20039;-55
2023/12/17 00:36:52;;;;;;;4.30;3.22;;;;;;;9.34;79.82;101991.81;4959878;28;20057;-50
2023/12/17 00:39:19;;;;;;;4.63;3.47;;;;;;;9.37;80.25;101992.81;4959565;28;20047;-54
2023/12/17 00:41:46;;;;;;;3.55;2.00;;;;;;;9.35;79.62;101983.22;4965467;28;20054;-51
2023/12/17 00:44:12;;;;;;;3.53;2.60;;;;;;;9.33;80.36;101990.97;4992608;28;20517;-49
2023/12/17 00:46:39;;;;;;;4.30;3.85;;;;;;;9.36;79.85;101995.34;4994970;28;20081;-50
2023/12/17 00:49:06;;;;;;;3.65;3.28;;;;;;;9.37;80.10;102002.28;4976802;28;20047;-53
2023/12/17 00:51:34;;;;;;;4.30;3.85;;;;;;;9.39;80.36;101998.03;4988948;28;20066;-49
2023/12/17 00:54:01;;;;;;;3.92;3.50;;;;;;;9.40;79.89;102002.38;4988520;28;20082;-51
2023/12/17 00:56:28;;;;;;;4.45;3.85;;;;;;;9.42;80.25;102003.31;4995770;28;20049;-46
2023/12/17 00:58:54;;;;;;;4.75;4.35;;;;;;;9.42;80.00;102000.72;4989117;28;20558;-45
2023/12/17 01:01:21;;;;;;;2.55;1.38;;;;;;;9.45;79.71;102000.81;4992246;28;20038;-54
2023/12/17 01:03:48;;;;;;;2.35;1.15;;;;;;;9.46;79.73;102007.75;4993768;28;20141;-54
2023/12/17 01:06:15;;;;;;;4.15;2.72;;;;;;;9.45;80.09;102003.41;4991074;28;20054;-53
2023/12/17 01:08:42;;;;;;;2.97;1.27;;;;;;;9.50;79.72;101999.25;4993882;28;20049;-51
2023/12/17 01:11:08;;;;;;;2.60;1.40;;;;;;;9.52;79.70;101986.38;4976947;28;20049;-46
2023/12/17 01:13:35;;;;;;;3.65;1.20;;;;;;;9.54;80.15;101994.19;4996581;28;20050;-49
2023/12/17 01:16:04;;;;;;;2.10;1.38;;;;;;;9.55;79.82;101995.97;4986864;28;20173;-49
2023/12/17 01:18:32;;;;;;;2.95;2.55;;;;;;;9.58;80.17;101985.72;4996031;28;20038;-44
2023/12/17 01:21:02;;;;;;;1.17;0.95;;;;;;;9.54;79.84;101983.84;4990828;28;20065;-55
2023/12/17 01:23:29;;;;;;;1.52;1.17;;;;;;;9.57;80.19;101989.13;4989152;28;20077;-46
2023/12/17 01:25:56;;;;;;;1.95;1.00;;;;;;;9.59;79.50;101982.31;4987397;28;20045;-48
2023/12/17 01:28:23;;;;;;;3.17;1.10;;;;;;;9.63;80.13;101989.34;4982842;28;20057;-42
2023/12/17 01:30:50;;;;;;;2.20;1.00;;;;;;;9.63;79.63;101973.81;4992534;28;20088;-44
2023/12/17 01:33:17;;;;;;;3.17;2.92;;;;;;;9.64;80.00;101970.41;4978886;28;20066;-52
2023/12/17 01:35:44;;;;;;;1.98;0.90;;;;;;;9.61;79.94;101970.28;4964882;28;20088;-48
2023/12/17 01:38:11;;;;;;;4.43;4.00;;;;;;;9.64;79.83;101960.03;4964598;28;20046;-54
2023/12/17 01:40:39;;;;;;;4.15;2.95;;;;;;;9.62;79.80;101969.44;4980360;28;20058;-51
2023/12/17 01:43:09;;;;;;;2.53;1.55;;;;;;;9.64;79.98;101965.22;4982657;28;20360;-51
2023/12/17 01:45:35;;;;;;;3.05;2.63;;;;;;;9.60;79.32;101973.72;4990726;28;20051;-46
2023/12/17 01:48:02;;;;;;;5.40;3.03;;;;;;;9.62;79.22;101962.59;4989019;28;20057;-52
2023/12/17 01:50:30;;;;;;;2.60;2.40;;;;;;;9.63;79.62;101947.94;4996567;28;20049;-48
2023/12/17 01:52:57;;;;;;;2.75;1.33;;;;;;;9.59;79.22;101956.44;4987177;28;20050;-52
2023/12/17 01:55:26;;;;;;;3.78;1.15;;;;;;;9.58;79.91;101960.72;4987029;28;20050;-52
2023/12/17 01:57:53;;;;;;;2.90;2.63;;;;;;;9.62;79.37;101959.09;4991977;28;20048;-45
2023/12/17 02:00:20;;;;;;;2.35;1.50;;;;;;;9.56;79.33;101958.94;4995166;28;20080;-48
2023/12/17 02:02:47;;;;;;;2.72;1.45;;;;;;;9.58;79.82;101954.66;4994431;28;20047;-49
2023/12/17 02:05:14;;;;;;;4.95;1.45;;;;;;;9.62;79.92;101948.75;4989886;28;20133;-51
2023/12/17 02:07:41;;;;;;;4.78;2.25;;;;;;;9.64;79.18;101936.75;4998060;28;20050;-46
2023/12/17 02:10:08;;;;;;;3.53;3.22;;;;;;;9.58;80.34;101936.56;4987404;28;20101;-51
2023/12/17 02:12:35;;;;;;;4.18;2.13;;;;;;;9.61;79.86;101939.25;4997291;28;20053;-43
2023/12/17 02:15:02;;;;;;;5.40;3.85;;;;;;;9.64;79.75;101939.34;4985918;28;20105;-46
2023/12/17 02:17:30;;;;;;;6.97;4.35;;;;;;;9.64;79.86;101937.66;4990798;28;20064;-53
2023/12/17 02:19:58;;;;;;;6.35;3.35;;;;;;;9.70;79.64;101943.84;4964188;28;20398;-44
2023/12/17 02:22:26;;;;;;;3.03;1.80;;;;;;;9.61;80.49;101944.41;4965734;28;20125;-53
2023/12/17 02:24:53;;;;;;;5.05;2.45;;;;;;;9.64;79.81;101945.41;4969963;28;20070;-48
2023/12/17 02:27:23;;;;;;;8.65;6.68;;;;;;;9.66;80.08;101940.25;4970643;28;20130;-55
2023/12/17 02:29:51;;;;;;;8.02;5.38;;;;;;;9.67;79.31;101933.38;4991621;28;20058;-43
2023/12/17 02:32:20;;;;;;;5.97;4.28;;;;;;;9.65;79.90;101930.75;4985774;28;20061;-46
2023/12/17 02:34:48;;;;;;;4.97;2.53;;;;;;;9.66;79.50;101932.50;4989342;28;20058;-50
2023/12/17 02:37:15;;;;;;;6.70;3.13;;;;;;;9.71;80.02;101922.28;4989687;28;20055;-44
2023/12/17 02:39:42;;;;;;;5.28;4.03;;;;;;;9.67;80.44;101918.75;4993480;28;20045;-55
2023/12/17 02:42:09;;;;;;;6.40;3.05;;;;;;;9.72;79.52;101912.00;4990078;28;20052;-46
2023/12/17 02:44:37;;;;;;;6.07;4.30;;;;;;;9.67;80.35;101904.91;4970137;28;20420;-42
2023/12/17 02:47:03;;;;;;;7.20;4.50;;;;;;;9.65;80.43;101904.88;4993884;28;20038;-50
2023/12/17 02:49:31;;;;;;;7.63;2.42;;;;;;;9.59;80.61;101910.72;4993532;28;20057;-48
2023/12/17 02:51:58;;;;;;;5.38;2.42;;;;;;;9.59;80.05;101899.53;4985359;28;20105;-43
2023/12/17 02:54:25;;;;;;;7.75;4.18;;;;;;;9.64;80.30;101908.31;4993804;28;20110;-53
2023/12/17 02:56:52;;;;;;;6.47;2.90;;;;;;;9.61;80.07;101896.16;4985513;28;20043;-49
2023/12/17 02:59:19;;;;;;;5.07;3.97;;;;;;;9.62;80.11;101899.59;4988366;28;20096;-55
2023/12/17 03:01:45;;;;;;;4.65;3.70;;;;;;;9.56;79.56;101894.25;4986295;28;20504;-43
2023/12/17 03:04:13;;;;;;;4.93;3.72;;;;;;;9.56;79.30;101899.41;4985365;28;20058;-47
2023/12/17 03:06:40;;;;;;;6.57;4.95;;;;;;;9.59;79.09;101889.19;4988162;28;20054;-53
2023/12/17 03:09:07;;;;;;;4.43;1.95;;;;;;;9.52;79.56;101886.38;4982992;28;20077;-48
2023/12/17 03:11:34;;;;;;;4.00;3.17;;;;;;;9.54;79.45;101893.31;4983371;28;20109;-50
2023/12/17 03:14:00;;;;;;;3.92;3.08;;;;;;;9.52;79.39;101880.31;4987104;28;20046;-51
2023/12/17 03:16:28;;;;;;;3.72;2.53;;;;;;;9.37;78.62;101898.84;4990759;28;20073;-49
2023/12/17 03:18:55;;;;;;;3.70;3.33;;;;;;;9.40;79.17;101883.41;4985628;28;20053;-51
2023/12/17 03:21:23;;;;;;;2.95;1.88;;;;;;;9.37;78.66;101885.91;4981826;28;20325;-45
2023/12/17 03:23:50;;;;;;;3.70;2.83;;;;;;;9.36;78.16;101881.56;4982256;28;20436;-51
2023/12/17 03:26:17;;;;;;;8.27;3.67;;;;;;;9.34;78.12;101872.88;4985590;28;20125;-55
2023/12/17 03:28:44;;;;;;;3.65;3.28;;;;;;;9.29;78.64;101874.44;4984522;28;20055;-45
2023/12/17 03:31:14;;;;;;;4.22;3.13;;;;;;;9.29;78.51;101869.28;4985153;28;20055;-50
2023/12/17 03:33:42;;;;;;;8.18;2.78;;;;;;;9.28;78.81;101867.53;4993404;28;20058;-53
2023/12/17 03:36:14;;;;;;;4.82;3.03;;;;;;;9.21;78.50;101861.25;4985617;28;20203;-48
2023/12/17 03:38:42;;;;;;;6.93;3.03;;;;;;;9.10;78.78;101853.16;4981549;28;20496;-52
2023/12/17 03:41:28;;;;;;;4.20;3.00;;;;;;;9.11;78.87;101841.97;4980091;28;20113;-49
2023/12/17 03:43:56;;;;;;;5.70;1.20;;;;;;;9.12;78.60;101848.94;4990092;28;20061;-49
2023/12/17 03:46:24;;;;;;;1.95;1.00;;;;;;;9.11;78.72;101844.56;4987833;28;20049;-50
2023/12/17 03:48:52;;;;;;;5.70;3.78;;;;;;;9.03;78.26;101840.84;4993994;28;20100;-45
2023/12/17 03:51:19;;;;;;;2.90;2.65;;;;;;;9.02;78.43;101832.22;4983702;28;20055;-54
2023/12/17 03:53:46;;;;;;;3.20;2.42;;;;;;;9.01;78.53;101827.88;4984654;28;20051;-47
2023/12/17 03:56:14;;;;;;;4.97;3.00;;;;;;;8.94;78.05;101825.91;4977604;28;20571;-47
2023/12/17 03:58:42;;;;;;;2.88;2.50;;;;;;;8.85;78.28;101813.59;4985154;28;20050;-49
2023/12/17 04:01:09;;;;;;;8.13;2.88;;;;;;;8.87;78.10;101807.66;4977292;28;20523;-53
2023/12/17 04:03:36;;;;;;;4.82;2.25;;;;;;;8.82;78.45;101809.19;4986698;28;20082;-47
2023/12/17 04:06:05;;;;;;;2.85;0.95;;;;;;;8.77;78.18;101807.28;4987692;28;20116;-49
2023/12/17 04:08:32;;;;;;;3.17;2.72;;;;;;;8.80;78.44;101812.56;4981502;28;20090;-44
2023/12/17 04:10:59;;;;;;;5.55;2.60;;;;;;;8.80;78.51;101813.44;4987083;28;20055;-53
2023/12/17 04:13:25;;;;;;;5.45;3.10;;;;;;;8.73;78.32;101819.22;4977773;28;20068;-51
2023/12/17 04:15:52;;;;;;;3.00;0.88;;;;;;;8.81;78.60;101815.19;4985251;28;20120;-52
2023/12/17 04:18:19;;;;;;;3.50;3.20;;;;;;;8.85;78.44;101811.03;4985853;28;20140;-52
2023/12/17 04:20:45;;;;;;;4.03;2.65;;;;;;;8.78;78.35;101819.38;4993355;28;20058;-45
2023/12/17 04:23:12;;;;;;;3.35;2.45;;;;;;;8.86;78.00;101817.94;4988162;28;20077;-42
2023/12/17 04:25:39;;;;;;;8.52;3.00;;;;;;;8.89;78.33;101827.50;4981738;28;20062;-48
2023/12/17 04:28:05;;;;;;;4.90;2.95;;;;;;;8.93;78.39;101825.06;4989302;28;20169;-48
2023/12/17 04:30:32;;;;;;;3.00;2.42;;;;;;;8.86;78.17;101818.78;4983563;28;20124;-53
2023/12/17 04:32:59;;;;;;;4.53;1.10;;;;;;;8.92;78.33;101818.13;4985109;28;20693;-51
2023/12/17 04:35:26;;;;;;;2.45;2.25;;;;;;;8.90;78.31;101809.44;4987830;28;20050;-46
2023/12/17 04:37:53;;;;;;;4.32;2.63;;;;;;;8.94;77.95;101823.34;4979516;28;20050;-44
2023/12/17 04:40:19;;;;;;;5.47;2.13;;;;;;;8.94;78.20;101810.41;4992167;28;20511;-49
2023/12/17 04:42:46;;;;;;;3.60;0.70;;;;;;;8.93;78.18;101809.56;4986519;28;20400;-51
2023/12/17 04:45:13;;;;;;;3.90;2.03;;;;;;;8.90;77.98;101804.28;4996080;28;20054;-50
2023/12/17 04:47:39;;;;;;;3.95;3.22;;;;;;;8.97;78.02;101795.91;4989921;28;20050;-50
2023/12/17 04:50:07;;;;;;;8.52;3.33;;;;;;;8.92;77.54;101792.28;4986947;28;20068;-48
2023/12/17 04:52:34;;;;;;;3.72;2.95;;;;;;;8.91;78.15;101790.53;4987916;28;20496;-46
2023/12/17 04:55:03;;;;;;;6.40;2.95;;;;;;;8.90;77.47;101788.78;4984972;28;20046;-49
2023/12/17 04:57:30;;;;;;;6.93;1.20;;;;;;;8.88;77.68;101785.25;4986537;28;20057;-48
2023/12/17 04:59:57;;;;;;;8.05;3.45;;;;;;;8.90;77.77;101790.47;4979420;28;20480;-51
2023/12/17 05:02:23;;;;;;;2.97;0.90;;;;;;;8.81;77.71;101773.00;5001543;28;20053;-54
2023/12/17 05:04:50;;;;;;;3.92;0.60;;;;;;;8.82;77.79;101769.56;4993088;28;20480;-46
2023/12/17 05:07:17;;;;;;;8.32;2.17;;;;;;;8.79;77.55;101759.13;4990126;28;20475;-46
2023/12/17 05:09:44;;;;;;;3.28;2.30;;;;;;;8.71;77.42;101751.13;4983543;28;20069;-45
2023/12/17 05:12:11;;;;;;;5.65;1.55;;;;;;;8.70;77.18;101754.53;4984798;28;20054;-54
2023/12/17 05:14:37;;;;;;;4.28;1.80;;;;;;;8.67;77.22;101745.00;4989672;28;20050;-51
2023/12/17 05:17:04;;;;;;;2.85;0.60;;;;;;;8.60;77.09;101754.25;4979052;28;20034;-54
2023/12/17 05:19:30;;;;;;;8.15;2.22;;;;;;;8.58;77.60;101761.06;4988475;28;20058;-49
2023/12/17 05:21:57;;;;;;;2.95;1.83;;;;;;;8.47;78.04;101758.09;4984662;28;20047;-46
2023/12/17 05:24:24;;;;;;;5.78;2.13;;;;;;;8.54;77.97;101774.69;4987782;28;20108;-48
2023/12/17 05:26:51;;;;;;;4.15;2.40;;;;;;;8.52;77.63;101765.09;4992490;28;20046;-45
2023/12/17 05:29:18;;;;;;;4.30;2.22;;;;;;;8.52;78.06;101749.63;4986374;28;20121;-44
2023/12/17 05:31:44;;;;;;;6.75;2.63;;;;;;;8.49;78.03;101746.09;4987854;28;20047;-53
2023/12/17 05:34:11;;;;;;;3.25;1.92;;;;;;;8.43;77.65;101740.75;4988584;28;20149;-56
2023/12/17 05:36:38;;;;;;;3.47;2.55;;;;;;;8.40;77.95;101745.78;4982579;28;20106;-47
2023/12/17 05:39:05;;;;;;;5.25;2.92;;;;;;;8.41;77.53;101747.53;4988592;28;20042;-51
2023/12/17 05:41:32;;;;;;;4.65;2.33;;;;;;;8.34;77.80;101745.56;4991869;28;20055;-48
2023/12/17 05:43:59;;;;;;;8.38;3.25;;;;;;;8.36;77.42;101743.94;4992705;28;20771;-47
2023/12/17 05:46:26;;;;;;;4.40;2.95;;;;;;;8.35;77.73;101731.88;4989579;28;20046;-54
2023/12/17 05:48:53;;;;;;;7.15;2.35;;;;;;;8.30;78.31;101723.06;4994201;28;20050;-45
2023/12/17 05:51:20;;;;;;;6.90;0.98;;;;;;;8.26;77.59;101716.94;4990292;28;20149;-42
2023/12/17 05:53:47;;;;;;;2.65;0.75;;;;;;;8.19;77.40;101726.19;4998691;28;20457;-48
2023/12/17 05:56:14;;;;;;;5.82;3.40;;;;;;;8.24;78.05;101713.41;4988595;28;20053;-50
2023/12/17 05:58:41;;;;;;;5.13;2.67;;;;;;;8.23;78.10;101712.56;4999126;28;20042;-51
2023/12/17 06:01:08;;;;;;;6.55;2.42;;;;;;;8.12;77.80;101713.88;4980313;28;20054;-45
2023/12/17 06:03:37;;;;;;;4.20;1.25;;;;;;;8.16;78.17;101714.84;4991613;28;20464;-57
2023/12/17 06:06:06;;;;;;;4.90;2.40;;;;;;;8.07;78.12;101718.03;4986446;28;20049;-52
2023/12/17 06:08:32;;;;;;;5.13;3.13;;;;;;;8.12;77.95;101719.06;4991380;28;20084;-48
2023/12/17 06:10:59;;;;;;;5.30;2.78;;;;;;;8.11;77.68;101712.13;4999062;28;20050;-48
2023/12/17 06:13:26;;;;;;;10.95;2.33;;;;;;;8.07;78.40;101725.75;4997427;28;20053;-52
2023/12/17 06:15:52;;;;;;;3.13;2.30;;;;;;;8.05;77.65;101715.38;4990406;28;20050;-44
2023/12/17 06:18:19;;;;;;;3.20;0.95;;;;;;;8.06;77.57;101726.56;4989731;28;20344;-50
2023/12/17 06:20:46;;;;;;;4.20;1.98;;;;;;;8.03;78.09;101723.88;4990907;28;20046;-43
2023/12/17 06:23:14;;;;;;;3.58;2.47;;;;;;;8.01;77.56;101736.75;4995461;28;20050;-51
2023/12/17 06:25:41;;;;;;;5.20;2.25;;;;;;;8.04;78.37;101730.81;4992222;28;20050;-51
2023/12/17 06:28:07;;;;;;;5.22;0.80;;;;;;;8.01;78.25;101741.03;4995024;28;20045;-41
2023/12/17 06:30:35;;;;;;;7.20;2.65;;;;;;;7.99;78.08;101735.81;4991169;28;20069;-44
2023/12/17 06:33:02;;;;;;;6.47;3.05;;;;;;;7.97;78.39;101742.59;4987046;28;20046;-46
2023/12/17 06:35:29;;;;;;;4.93;2.15;;;;;;;7.97;78.49;101733.16;4993228;28;20056;-42
2023/12/17 06:37:56;;;;;;;4.10;1.10;;;;;;;7.98;78.09;101727.16;4989344;28;20049;-46
2023/12/17 06:40:23;;;;;;;5.22;2.70;;;;;;;8.00;77.94;101726.38;4989727;28;20082;-46
2023/12/17 06:42:49;;;;;;;4.93;2.30;;;;;;;7.93;78.27;101731.31;4989017;28;20054;-50
2023/12/17 06:45:16;;;;;;;4.05;1.08;;;;;;;7.93;79.12;101723.56;4981893;28;20042;-48
2023/12/17 06:47:44;;;;;;;2.70;2.25;;;;;;;7.96;78.08;101718.53;4992769;28;20050;-50
2023/12/17 06:50:12;;;;;;;2.70;1.30;;;;;;;7.96;78.73;101713.34;4986009;28;20112;-50
2023/12/17 06:52:39;;;;;;;2.13;0.85;;;;;;;7.94;78.88;101717.56;4994024;28;20058;-53
2023/12/17 06:55:06;;;;;;;3.38;0.88;;;;;;;8.00;78.49;101718.63;4990218;28;20491;-54
2023/12/17 06:57:33;;;;;;;5.20;2.22;;;;;;;8.01;78.68;101710.06;4990276;28;20468;-48
2023/12/17 07:00:00;;;;;;;3.08;0.85;;;;;;;8.00;79.15;101704.00;4993771;28;20048;-46
2023/12/17 07:02:27;;;;;;;3.13;1.85;;;;;;;7.96;79.09;101713.34;4994534;28;20043;-43
2023/12/17 07:04:53;;;;;;;3.83;2.92;;;;;;;7.98;78.67;101716.84;4989579;28;20174;-46
2023/12/17 07:07:20;;;;;;;7.20;2.83;;;;;;;8.06;78.03;101703.34;4985565;28;20053;-49
2023/12/17 07:09:47;;;;;;;3.08;2.25;;;;;;;8.04;78.94;101699.84;4987708;28;20054;-51
2023/12/17 07:12:13;;;;;;;4.38;2.22;;;;;;;8.08;78.19;101712.03;4994166;28;20492;-54
2023/12/17 07:14:40;;;;;;;8.40;2.55;;;;;;;8.10;78.66;101705.19;4990073;28;20146;-52
2023/12/17 07:17:07;;;;;;;4.25;1.05;;;;;;;8.11;78.42;101712.13;4996074;28;20038;-51
2023/12/17 07:19:33;;;;;;;10.57;3.38;;;;;;;8.09;78.49;101708.63;4988492;28;20127;-45
2023/12/17 07:22:00;;;;;;;3.58;0.90;;;;;;;8.13;78.45;101715.63;4990504;28;20400;-52
2023/12/17 07:24:27;;;;;;;5.32;2.72;;;;;;;8.12;78.38;101703.56;4994456;28;20113;-46
2023/12/17 07:26:54;;;;;;;5.63;1.00;;;;;;;8.20;78.24;101711.56;4996327;28;20100;-50
2023/12/17 07:29:20;;;;;;;2.45;1.45;;;;;;;8.19;78.09;101708.13;4997196;28;20046;-51
2023/12/17 07:31:47;;;;;;;5.40;3.17;;;;;;;8.22;78.28;101708.22;4992198;28;20054;-45
2023/12/17 07:34:14;;;;;;;8.38;3.30;;;;;;;8.23;78.34;101702.22;4985949;28;20076;-49
2023/12/17 07:36:46;;;;;;;2.33;2.13;;;;;;;8.25;78.66;101703.97;4982978;28;20141;-55
2023/12/17 07:39:13;;;;;;;5.07;2.90;;;;;;;8.24;78.19;101700.50;4978808;28;20081;-56
2023/12/17 07:41:39;;;;;;;5.88;2.75;;;;;;;8.25;78.16;101714.28;4986769;28;20518;-54
2023/12/17 07:44:06;;;;;;;6.88;1.35;;;;;;;8.26;77.95;101716.03;4984950;28;20047;-50
2023/12/17 07:46:33;;;;;;;6.47;1.27;;;;;;;8.19;77.75;101715.84;4988571;28;20049;-52
2023/12/17 07:49:00;;;;;;;4.25;1.35;;;;;;;8.22;77.46;101715.06;4989206;28;20055;-51
2023/12/17 07:51:27;;;;;;;5.32;1.50;;;;;;;8.23;77.83;101716.81;5000815;28;20450;-50
2023/12/17 07:53:54;;;;;;;6.20;3.00;;;;;;;8.27;77.24;101723.00;4991328;28;20892;-54
2023/12/17 07:56:21;;;;;;;5.05;2.78;;;;;;;8.26;77.68;101726.38;4981818;28;20051;-46
2023/12/17 07:58:48;;;;;;;7.97;3.58;;;;;;;8.28;77.99;101724.72;4995740;28;20049;-52
2023/12/17 08:01:14;;;;;;;6.13;1.15;;;;;;;8.28;77.33;101729.91;4987056;28;20063;-47
2023/12/17 08:03:46;;;;;;;6.03;2.97;;;;;;;8.31;77.35;101736.03;4996931;28;20054;-50
2023/12/17 08:06:13;;;;;;;6.25;2.97;;;;;;;8.30;78.17;101734.28;4988229;28;20044;-48
2023/12/17 08:08:41;;;;;;;4.45;2.08;;;;;;;8.31;77.68;101736.03;4996497;28;20070;-42
2023/12/17 08:11:12;;;;;;;4.43;2.22;;;;;;;8.23;77.40;101743.53;4995092;28;20435;-49
2023/12/17 08:13:39;;;;;;;3.90;1.25;;;;;;;8.23;78.09;101742.63;4989654;28;20136;-45
2023/12/17 08:16:06;;;;;;;3.88;3.10;;;;;;;8.28;77.81;101750.53;4984551;28;20039;-51
2023/12/17 08:18:32;;;;;;;5.25;1.10;;;;;;;8.29;77.62;101736.81;4983169;28;20081;-48
2023/12/17 08:20:59;;;;;;;6.20;3.75;;;;;;;8.31;77.53;101740.34;4981418;28;20054;-52
2023/12/17 08:23:26;;;;;;;9.40;3.17;;;;;;;8.28;77.18;101745.38;4981464;28;20047;-47
2023/12/17 08:25:53;;;;;;;6.55;1.52;;;;;;;8.31;77.13;101732.59;4984651;28;20049;-50
2023/12/17 08:28:20;;;;;;;9.23;3.15;;;;;;;8.25;77.22;101727.22;4976321;28;20051;-45
2023/12/17 08:30:48;;;;;;;6.00;1.13;;;;;;;8.20;77.02;101727.03;4983057;28;20046;-52
2023/12/17 08:33:16;;;;;;;6.15;1.65;;;;;;;8.29;77.18;101731.66;4981830;28;20553;-54
2023/12/17 08:35:44;;;;;;;9.00;5.22;;;;;;;8.33;76.49;101746.41;4982463;28;20047;-45
2023/12/17 08:38:11;;;;;;;10.43;3.38;;;;;;;8.31;76.92;101740.34;4979953;28;20042;-53
2023/12/17 08:40:40;;;;;;;8.45;1.70;;;;;;;8.32;76.33;101724.00;4986640;28;20054;-53
2023/12/17 08:43:07;;;;;;;9.65;3.72;;;;;;;8.32;76.76;101731.75;4980808;28;20130;-53
2023/12/17 08:45:35;;;;;;;3.83;2.28;;;;;;;8.28;76.83;101730.75;4981814;28;20129;-52
2023/12/17 08:48:02;;;;;;;5.93;1.42;;;;;;;8.40;76.48;101727.72;4978966;28;20077;-48
2023/12/17 08:50:30;;;;;;;6.57;3.08;;;;;;;8.54;76.69;101735.09;4980361;28;20058;-47
2023/12/17 08:52:57;;;;;;;12.05;3.70;;;;;;;8.68;76.72;101728.66;4981860;28;20047;-53
2023/12/17 08:55:24;;;;;;;7.55;3.10;;;;;;;8.77;76.49;101734.94;4981272;28;20066;-41
2023/12/17 08:57:52;;;;;;;11.20;4.00;;;;;;;8.77;76.02;101729.78;4983002;28;20732;-46
2023/12/17 09:00:19;;;;;;;4.70;2.70;;;;;;;8.69;75.62;101732.13;4978707;28;20121;-46
2023/12/17 09:02:46;;;;;;;8.45;4.18;;;;;;;8.66;76.22;101730.31;4986211;28;20057;-48
2023/12/17 09:05:13;;;;;;;6.78;3.65;;;;;;;8.60;75.51;101748.19;4984705;28;20121;-47
2023/12/17 09:07:40;;;;;;;9.70;2.65;;;;;;;8.58;76.31;101744.69;4981899;28;20456;-49
2023/12/17 09:10:07;;;;;;;6.47;1.27;;;;;;;8.58;75.81;101731.78;4987845;28;20393;-52
2023/12/17 09:12:34;;;;;;;5.30;3.75;;;;;;;8.58;75.59;101724.03;4986048;28;20057;-51
2023/12/17 09:15:01;;;;;;;8.38;1.90;;;;;;;8.58;76.04;101730.06;4988564;28;20081;-45
2023/12/17 09:17:28;;;;;;;3.83;3.30;;;;;;;8.62;75.99;101733.63;4990553;28;20144;-53
2023/12/17 09:19:54;;;;;;;7.18;3.50;;;;;;;8.60;75.93;101727.53;4990931;28;20762;-47
2023/12/17 09:22:21;;;;;;;10.50;3.75;;;;;;;8.69;75.96;101727.84;4977482;28;20125;-51
2023/12/17 09:24:48;;;;;;;7.85;2.17;;;;;;;8.71;75.49;101725.28;4980395;28;21209;-49
2023/12/17 09:27:15;;;;;;;3.22;2.88;;;;;;;8.70;75.46;101716.69;4998406;28;20562;-50
2023/12/17 09:29:42;;;;;;;5.10;1.58;;;;;;;8.79;75.51;101707.47;4992525;28;20134;-46
2023/12/17 09:32:09;;;;;;;9.73;3.20;;;;;;;8.75;75.56;101722.00;4992397;28;20135;-46
2023/12/17 09:34:36;;;;;;;11.13;3.22;;;;;;;8.78;75.57;101722.06;4992139;28;20055;-48
2023/12/17 09:37:03;;;;;;;6.32;3.03;;;;;;;8.73;75.53;101728.81;5003271;28;20141;-51
2023/12/17 09:39:30;;;;;;;7.38;3.33;;;;;;;8.73;75.15;101719.38;4997578;28;20054;-52
2023/12/17 09:41:57;;;;;;;10.35;3.78;;;;;;;8.76;75.36;101712.53;4995023;28;20054;-44
2023/12/17 09:44:26;;;;;;;9.50;3.17;;;;;;;8.76;75.38;101712.53;4993097;28;20131;-53
2023/12/17 09:46:53;;;;;;;4.25;1.67;;;;;;;8.71;75.33;101708.09;4996330;28;20050;-51
2023/12/17 09:49:20;;;;;;;6.55;2.45;;;;;;;8.70;75.34;101706.34;4988944;28;20059;-55
2023/12/17 09:51:57;;;;;;;6.45;1.52;;;;;;;8.67;75.40;101703.66;4991438;28;20069;-45
2023/12/17 09:54:24;;;;;;;;;;;;;;;8.64;75.50;101713.03;4992900;28;20419;-42
2023/12/17 09:56:53;;;;;;;4.63;3.03;;;;;;;8.66;75.50;101717.41;4988479;28;20383;-47
2023/12/17 09:59:21;;;;;;;11.93;3.90;;;;;;;8.81;75.22;101721.31;4999419;28;20043;-49
2023/12/17 10:01:48;;;;;;;11.30;6.38;;;;;;;8.73;75.06;101723.63;4991844;28;20069;-52
2023/12/17 10:04:15;;;;;;;7.07;4.00;;;;;;;8.80;75.05;101729.88;4999940;28;20499;-44
2023/12/17 10:06:42;;;;;;;9.00;4.43;;;;;;;8.83;75.33;101728.28;4990596;28;20061;-43
2023/12/17 10:09:08;;;;;;;5.40;1.65;;;;;;;8.92;75.16;101730.25;4989154;28;20047;-45
2023/12/17 10:11:36;;;;;;;3.35;1.00;;;;;;;8.88;74.91;101733.56;4989350;28;20054;-45
2023/12/17 10:14:03;;;;;;;3.28;1.50;;;;;;;8.89;74.64;101729.28;4987103;28;20495;-57
2023/12/17 10:16:32;;;;;;;3.75;1.80;;;;;;;8.95;74.87;101730.34;4984782;28;20163;-47
2023/12/17 10:18:58;;;;;;;11.65;3.75;;;;;;;8.95;75.19;101735.53;4995631;28;20062;-48
2023/12/17 10:21:25;;;;;;;5.53;2.10;;;;;;;8.98;74.38;101737.31;4989900;28;20097;-42
2023/12/17 10:23:53;;;;;;;10.07;3.17;;;;;;;8.96;74.72;101732.13;4985271;28;20078;-44
2023/12/17 10:26:19;;;;;;;7.50;3.05;;;;;;;9.02;74.65;101738.31;4995423;28;20045;-51
2023/12/17 10:28:51;;;;;;;8.18;1.65;;;;;;;9.04;74.59;101739.22;4994058;28;20089;-47
2023/12/17 10:31:21;;;;;;;8.27;3.53;;;;;;;9.06;74.55;101748.81;4992951;28;20042;-48
2023/12/17 10:33:57;;;;;;;9.18;4.40;;;;;;;9.06;74.64;101745.31;4998797;28;20089;-52
2023/12/17 10:36:24;;;;;;;5.50;1.92;;;;;;;9.09;74.57;101751.47;4994702;28;20046;-47
2023/12/17 10:38:53;;;;;;;6.60;1.92;;;;;;;9.04;74.18;101754.72;4992252;28;20489;-51
2023/12/17 10:41:21;;;;;;;11.43;2.88;;;;;;;9.12;74.26;101761.03;4998604;28;20085;-42
2023/12/17 10:43:51;;;;;;;10.40;2.92;;;;;;;9.14;74.54;101751.59;4993638;28;20046;-41
2023/12/17 10:46:18;;;;;;;7.18;3.35;;;;;;;9.14;74.25;101759.34;4989535;28;20048;-51
2023/12/17 10:48:45;;;;;;;5.28;2.25;;;;;;;9.13;74.00;101745.53;4997893;28;20621;-48
2023/12/17 10:51:18;;;;;;;4.47;2.28;;;;;;;9.15;74.16;101748.19;4985328;28;20054;-56
2023/12/17 10:53:45;;;;;;;11.77;3.38;;;;;;;9.18;74.47;101743.09;4994554;28;20050;-52
2023/12/17 10:56:13;;;;;;;5.15;1.25;;;;;;;9.20;74.48;101744.06;4982341;28;20081;-52
2023/12/17 10:58:41;;;;;;;4.40;2.45;;;;;;;9.21;73.97;101731.97;4994914;28;20101;-42
2023/12/17 11:01:09;;;;;;;6.68;1.38;;;;;;;9.20;74.35;101738.88;4987225;28;20500;-42
2023/12/17 11:03:36;;;;;;;6.18;2.53;;;;;;;9.23;74.80;101725.16;5000386;28;20142;-51
2023/12/17 11:06:04;;;;;;;8.15;3.03;;;;;;;9.24;74.50;101727.78;4991079;28;20134;-45
2023/12/17 11:08:31;;;;;;;7.80;2.92;;;;;;;9.22;73.73;101729.44;4992728;28;20097;-55
2023/12/17 11:10:59;;;;;;;7.97;1.63;;;;;;;9.31;74.00;101717.63;4994416;28;20504;-57
2023/12/17 11:13:26;;;;;;;4.15;2.88;;;;;;;9.28;73.91;101738.22;4976655;28;20073;-48
2023/12/17 11:15:54;;;;;;;10.85;3.58;;;;;;;9.35;73.86;101729.81;5000926;28;20053;-52
2023/12/17 11:18:23;;;;;;;8.18;3.42;;;;;;;9.37;73.69;101733.31;4992608;28;20042;-48
2023/12/17 11:20:53;;;;;;;6.15;1.13;;;;;;;9.38;73.76;101728.19;4999118;28;20051;-53
2023/12/17 11:23:20;;;;;;;6.60;3.20;;;;;;;9.39;73.82;101731.66;4994559;28;20054;-51
2023/12/17 11:25:47;;;;;;;4.38;1.30;;;;;;;9.36;74.13;101729.84;4994430;28;20074;-53
2023/12/17 11:28:30;;;;;;;4.80;2.97;;;;;;;9.36;74.11;101716.91;4994978;28;20046;-50
2023/12/17 11:30:58;;;;;;;5.38;0.82;;;;;;;9.43;74.46;101718.00;4982980;28;20129;-49
2023/12/17 11:33:25;;;;;;;6.57;2.28;;;;;;;9.48;74.10;101711.25;4990313;28;20054;-49